KDXR

Danbury Municipal Airport

Danbury, Connecticut, USA
METAR KDXR 191653Z 06007KT 030V100 10SM OVC042 00/M08 A3024 RMK AO2 SLP244 T00001083
Observed Flight Rules
Jan-19 @ 16:53 UTC (43 minutes ago) Visual Flight Rules
Wind Visibility Clouds
60° at 7 knots 10 miles
  • Overcast at 4,200' AGL
Temperatures Readings
Current 0°C / 32°F
Dewpoint -8°C / 18°F
Humidity 55%
Altimeter 30.24" Hg
Pressure 1024.4 hPa
Elevation 139
METAR KDXR 191653Z 06007KT 030V100 10SM OVC042 00/M08 A3024 RMK AO2 SLP244 T00001083
Observed Flight Rules
Jan-19 @ 16:53 UTC
(43 minutes ago)
VFR
Wind Visibility
60° at 7 knots 10 miles
Clouds
  • Overcast at 4,200' AGL
Temperature Dewpoint
0°C / 32°F -8°C / 18°F
Humidity Altimeter Pressure
55% 30.24" Hg 1024.4 hPa